sensor_id;sensor_type;location;lat;lon;timestamp;pressure;altitude;pressure_sealevel;temperature;humidity
23427;BME280;41148;45.420;10.952;2022-07-30T00:00:18;100466.53;;;22.03;88.36
23427;BME280;41148;45.420;10.952;2022-07-30T00:02:51;100469.84;;;22.06;86.60
23427;BME280;41148;45.420;10.952;2022-07-30T00:05:19;100465.06;;;22.10;85.78
23427;BME280;41148;45.420;10.952;2022-07-30T00:07:46;100453.34;;;22.09;85.06
23427;BME280;41148;45.420;10.952;2022-07-30T00:10:14;100447.41;;;22.04;85.17
23427;BME280;41148;45.420;10.952;2022-07-30T00:12:41;100457.28;;;22.05;85.14
23427;BME280;41148;45.420;10.952;2022-07-30T00:15:08;100442.81;;;21.82;88.27
23427;BME280;41148;45.420;10.952;2022-07-30T00:17:36;100451.69;;;21.84;87.37
23427;BME280;41148;45.420;10.952;2022-07-30T00:20:03;100445.72;;;21.57;91.04
23427;BME280;41148;45.420;10.952;2022-07-30T00:22:31;100442.63;;;21.61;90.92
23427;BME280;41148;45.420;10.952;2022-07-30T00:24:58;100447.66;;;21.43;92.02
23427;BME280;41148;45.420;10.952;2022-07-30T00:27:25;100444.00;;;21.56;90.33
23427;BME280;41148;45.420;10.952;2022-07-30T00:29:52;100444.53;;;21.37;91.98
23427;BME280;41148;45.420;10.952;2022-07-30T00:32:20;100449.25;;;21.46;91.15
23427;BME280;41148;45.420;10.952;2022-07-30T00:34:47;100439.31;;;21.58;91.62
23427;BME280;41148;45.420;10.952;2022-07-30T00:37:15;100437.72;;;21.66;91.62
23427;BME280;41148;45.420;10.952;2022-07-30T00:39:42;100444.28;;;21.75;90.57
23427;BME280;41148;45.420;10.952;2022-07-30T00:42:09;100444.03;;;21.78;90.65
23427;BME280;41148;45.420;10.952;2022-07-30T00:44:36;100439.00;;;21.85;89.72
23427;BME280;41148;45.420;10.952;2022-07-30T00:47:07;100447.84;;;21.76;90.45
23427;BME280;41148;45.420;10.952;2022-07-30T00:49:34;100446.59;;;21.68;90.42
23427;BME280;41148;45.420;10.952;2022-07-30T00:52:02;100442.91;;;21.81;91.50
23427;BME280;41148;45.420;10.952;2022-07-30T00:54:29;100443.91;;;21.80;92.26
23427;BME280;41148;45.420;10.952;2022-07-30T00:56:56;100447.97;;;21.63;94.52
23427;BME280;41148;45.420;10.952;2022-07-30T00:59:25;100451.81;;;21.36;95.52
23427;BME280;41148;45.420;10.952;2022-07-30T01:01:54;100449.25;;;21.46;94.22
23427;BME280;41148;45.420;10.952;2022-07-30T01:04:21;100464.63;;;21.22;95.67
23427;BME280;41148;45.420;10.952;2022-07-30T01:06:49;100457.00;;;21.15;95.50
23427;BME280;41148;45.420;10.952;2022-07-30T01:09:16;100458.66;;;21.05;96.49
23427;BME280;41148;45.420;10.952;2022-07-30T01:11:43;100459.00;;;21.01;95.55
23427;BME280;41148;45.420;10.952;2022-07-30T01:14:11;100458.19;;;21.11;94.79
23427;BME280;41148;45.420;10.952;2022-07-30T01:16:39;100460.41;;;21.06;92.94
23427;BME280;41148;45.420;10.952;2022-07-30T01:19:10;100463.13;;;20.94;94.42
23427;BME280;41148;45.420;10.952;2022-07-30T01:22:09;100457.34;;;20.87;94.50
23427;BME280;41148;45.420;10.952;2022-07-30T01:24:39;100466.75;;;20.81;96.18
23427;BME280;41148;45.420;10.952;2022-07-30T01:27:09;100460.16;;;20.85;95.20
23427;BME280;41148;45.420;10.952;2022-07-30T01:29:37;100465.13;;;21.15;93.48
23427;BME280;41148;45.420;10.952;2022-07-30T01:32:05;100458.22;;;21.35;91.43
23427;BME280;41148;45.420;10.952;2022-07-30T01:34:34;100450.00;;;21.48;90.18
23427;BME280;41148;45.420;10.952;2022-07-30T01:37:02;100452.06;;;21.33;90.30
23427;BME280;41148;45.420;10.952;2022-07-30T01:39:30;100442.72;;;21.13;91.51
23427;BME280;41148;45.420;10.952;2022-07-30T01:41:58;100458.16;;;21.24;90.01
23427;BME280;41148;45.420;10.952;2022-07-30T01:44:29;100465.00;;;21.17;87.58
23427;BME280;41148;45.420;10.952;2022-07-30T01:46:57;100456.28;;;21.25;88.99
23427;BME280;41148;45.420;10.952;2022-07-30T01:49:25;100451.44;;;20.93;91.53
23427;BME280;41148;45.420;10.952;2022-07-30T01:51:52;100445.16;;;20.93;91.00
23427;BME280;41148;45.420;10.952;2022-07-30T01:54:20;100444.47;;;21.02;89.50
23427;BME280;41148;45.420;10.952;2022-07-30T01:56:50;100440.84;;;20.90;88.65
23427;BME280;41148;45.420;10.952;2022-07-30T01:59:20;100441.97;;;20.75;89.10
23427;BME280;41148;45.420;10.952;2022-07-30T02:01:49;100439.19;;;20.76;89.52
23427;BME280;41148;45.420;10.952;2022-07-30T02:04:16;100433.16;;;20.84;87.64
23427;BME280;41148;45.420;10.952;2022-07-30T02:09:21;100444.75;;;21.10;84.85
23427;BME280;41148;45.420;10.952;2022-07-30T02:11:50;100433.09;;;20.73;88.25
23427;BME280;41148;45.420;10.952;2022-07-30T02:14:40;100433.81;;;20.88;85.92
23427;BME280;41148;45.420;10.952;2022-07-30T02:17:14;100440.34;;;20.85;87.02
23427;BME280;41148;45.420;10.952;2022-07-30T02:19:45;100446.53;;;20.74;87.17
23427;BME280;41148;45.420;10.952;2022-07-30T02:22:15;100437.47;;;20.75;86.81
23427;BME280;41148;45.420;10.952;2022-07-30T02:24:44;100440.09;;;20.88;85.90
23427;BME280;41148;45.420;10.952;2022-07-30T02:27:21;100442.28;;;21.07;84.10
23427;BME280;41148;45.420;10.952;2022-07-30T02:29:50;100435.81;;;21.21;81.90
23427;BME280;41148;45.420;10.952;2022-07-30T02:32:19;100439.72;;;21.29;81.72
23427;BME280;41148;45.420;10.952;2022-07-30T02:34:49;100442.53;;;21.28;82.70
23427;BME280;41148;45.420;10.952;2022-07-30T02:37:18;100442.41;;;21.29;82.41
23427;BME280;41148;45.420;10.952;2022-07-30T02:40:09;100442.81;;;21.36;81.84
23427;BME280;41148;45.420;10.952;2022-07-30T02:42:37;100444.00;;;21.67;79.82
23427;BME280;41148;45.420;10.952;2022-07-30T02:45:04;100436.63;;;21.69;80.26
23427;BME280;41148;45.420;10.952;2022-07-30T02:47:32;100437.25;;;21.73;81.24
23427;BME280;41148;45.420;10.952;2022-07-30T02:50:03;100439.44;;;21.67;82.77
23427;BME280;41148;45.420;10.952;2022-07-30T02:52:31;100435.00;;;21.55;85.21
23427;BME280;41148;45.420;10.952;2022-07-30T02:54:59;100433.47;;;21.40;85.98
23427;BME280;41148;45.420;10.952;2022-07-30T02:57:27;100439.63;;;21.42;87.06
23427;BME280;41148;45.420;10.952;2022-07-30T02:59:55;100439.63;;;21.42;87.74
23427;BME280;41148;45.420;10.952;2022-07-30T03:02:25;100443.81;;;21.35;89.46
23427;BME280;41148;45.420;10.952;2022-07-30T03:04:56;100446.84;;;21.30;88.91
23427;BME280;41148;45.420;10.952;2022-07-30T03:07:24;100452.09;;;20.97;90.57
23427;BME280;41148;45.420;10.952;2022-07-30T03:09:51;100451.84;;;21.00;90.95
23427;BME280;41148;45.420;10.952;2022-07-30T03:12:20;100451.00;;;20.99;90.00
23427;BME280;41148;45.420;10.952;2022-07-30T03:14:50;100433.81;;;21.11;90.47
23427;BME280;41148;45.420;10.952;2022-07-30T03:17:18;100441.47;;;20.94;90.91
23427;BME280;41148;45.420;10.952;2022-07-30T03:19:46;100439.66;;;20.94;91.23
23427;BME280;41148;45.420;10.952;2022-07-30T03:22:16;100447.13;;;21.14;90.11
23427;BME280;41148;45.420;10.952;2022-07-30T03:24:45;100447.84;;;21.29;89.53
23427;BME280;41148;45.420;10.952;2022-07-30T03:27:13;100464.63;;;21.34;88.95
23427;BME280;41148;45.420;10.952;2022-07-30T03:29:41;100456.50;;;21.34;87.55
23427;BME280;41148;45.420;10.952;2022-07-30T03:32:08;100448.97;;;21.38;88.21
23427;BME280;41148;45.420;10.952;2022-07-30T03:34:39;100449.09;;;21.36;86.27
23427;BME280;41148;45.420;10.952;2022-07-30T03:37:07;100456.16;;;21.02;88.16
23427;BME280;41148;45.420;10.952;2022-07-30T03:39:35;100450.19;;;20.86;89.17
23427;BME280;41148;45.420;10.952;2022-07-30T03:42:04;100455.00;;;20.94;89.21
23427;BME280;41148;45.420;10.952;2022-07-30T03:44:32;100460.03;;;21.11;90.24
23427;BME280;41148;45.420;10.952;2022-07-30T03:47:03;100460.84;;;21.24;88.54
23427;BME280;41148;45.420;10.952;2022-07-30T03:49:36;100458.09;;;21.37;88.40
23427;BME280;41148;45.420;10.952;2022-07-30T03:52:04;100461.41;;;21.40;88.95
23427;BME280;41148;45.420;10.952;2022-07-30T03:54:33;100466.50;;;21.45;88.89
23427;BME280;41148;45.420;10.952;2022-07-30T03:57:39;100467.44;;;21.33;89.69
23427;BME280;41148;45.420;10.952;2022-07-30T04:00:11;100474.44;;;20.88;93.64
23427;BME280;41148;45.420;10.952;2022-07-30T04:02:44;100481.06;;;21.07;93.20
23427;BME280;41148;45.420;10.952;2022-07-30T04:05:30;100483.19;;;21.28;91.59
23427;BME280;41148;45.420;10.952;2022-07-30T04:08:09;100484.75;;;21.43;91.41
23427;BME280;41148;45.420;10.952;2022-07-30T04:10:38;100485.09;;;21.50;89.94
23427;BME280;41148;45.420;10.952;2022-07-30T04:13:34;100491.75;;;21.46;89.65
23427;BME280;41148;45.420;10.952;2022-07-30T04:16:05;100498.97;;;21.34;90.10
23427;BME280;41148;45.420;10.952;2022-07-30T04:18:55;100494.34;;;21.47;89.23
23427;BME280;41148;45.420;10.952;2022-07-30T04:21:24;100492.91;;;21.54;88.93
23427;BME280;41148;45.420;10.952;2022-07-30T04:23:53;100503.25;;;21.60;88.68
23427;BME280;41148;45.420;10.952;2022-07-30T04:26:33;100504.94;;;21.50;87.85
23427;BME280;41148;45.420;10.952;2022-07-30T04:29:04;100509.13;;;21.43;87.72
23427;BME280;41148;45.420;10.952;2022-07-30T04:31:32;100498.91;;;21.47;86.41
23427;BME280;41148;45.420;10.952;2022-07-30T04:34:30;100507.69;;;21.61;84.51
23427;BME280;41148;45.420;10.952;2022-07-30T04:36:58;100511.78;;;21.67;84.02
23427;BME280;41148;45.420;10.952;2022-07-30T04:39:27;100507.69;;;21.61;83.31
23427;BME280;41148;45.420;10.952;2022-07-30T04:41:55;100507.78;;;21.49;84.70
23427;BME280;41148;45.420;10.952;2022-07-30T04:44:31;100506.06;;;21.48;83.39
23427;BME280;41148;45.420;10.952;2022-07-30T04:47:27;100503.78;;;21.65;82.26
23427;BME280;41148;45.420;10.952;2022-07-30T04:50:14;100506.19;;;21.81;80.33
23427;BME280;41148;45.420;10.952;2022-07-30T04:52:45;100495.22;;;21.83;80.11
23427;BME280;41148;45.420;10.952;2022-07-30T04:55:17;100500.13;;;21.78;78.86
23427;BME280;41148;45.420;10.952;2022-07-30T04:57:48;100503.47;;;21.81;78.97
23427;BME280;41148;45.420;10.952;2022-07-30T05:00:16;100510.22;;;21.76;79.35
23427;BME280;41148;45.420;10.952;2022-07-30T05:02:45;100506.25;;;21.68;79.84
23427;BME280;41148;45.420;10.952;2022-07-30T05:05:13;100506.28;;;21.80;80.15
23427;BME280;41148;45.420;10.952;2022-07-30T05:07:43;100512.84;;;21.88;79.74
23427;BME280;41148;45.420;10.952;2022-07-30T05:10:10;100512.22;;;21.85;81.44
23427;BME280;41148;45.420;10.952;2022-07-30T05:12:39;100506.53;;;21.77;81.75
23427;BME280;41148;45.420;10.952;2022-07-30T05:15:08;100499.91;;;21.92;82.28
23427;BME280;41148;45.420;10.952;2022-07-30T05:17:35;100503.84;;;21.99;82.14
23427;BME280;41148;45.420;10.952;2022-07-30T05:20:06;100510.41;;;21.96;82.22
23427;BME280;41148;45.420;10.952;2022-07-30T05:23:06;100520.09;;;22.12;81.31
23427;BME280;41148;45.420;10.952;2022-07-30T05:25:33;100515.34;;;21.91;79.45
23427;BME280;41148;45.420;10.952;2022-07-30T05:28:13;100505.69;;;21.87;78.79
23427;BME280;41148;45.420;10.952;2022-07-30T05:30:41;100503.50;;;22.04;79.57
23427;BME280;41148;45.420;10.952;2022-07-30T05:33:15;100503.69;;;22.13;79.38
23427;BME280;41148;45.420;10.952;2022-07-30T05:35:43;100494.94;;;22.32;78.95
23427;BME280;41148;45.420;10.952;2022-07-30T05:38:10;100509.13;;;22.36;77.20
23427;BME280;41148;45.420;10.952;2022-07-30T05:40:50;100517.78;;;22.30;79.76
23427;BME280;41148;45.420;10.952;2022-07-30T05:43:53;100511.53;;;22.05;81.39
23427;BME280;41148;45.420;10.952;2022-07-30T05:46:22;100522.81;;;22.12;81.99
23427;BME280;41148;45.420;10.952;2022-07-30T05:48:49;100531.81;;;22.23;81.37
23427;BME280;41148;45.420;10.952;2022-07-30T05:51:18;100536.06;;;22.04;82.65
23427;BME280;41148;45.420;10.952;2022-07-30T05:53:46;100537.63;;;21.95;83.03
23427;BME280;41148;45.420;10.952;2022-07-30T05:56:33;100528.78;;;22.04;83.02
23427;BME280;41148;45.420;10.952;2022-07-30T05:59:09;100528.59;;;22.18;82.20
23427;BME280;41148;45.420;10.952;2022-07-30T06:01:54;100535.78;;;22.31;82.30
23427;BME280;41148;45.420;10.952;2022-07-30T06:04:28;100539.75;;;22.60;80.33
23427;BME280;41148;45.420;10.952;2022-07-30T06:07:02;100543.81;;;22.54;80.23
23427;BME280;41148;45.420;10.952;2022-07-30T06:09:31;100547.25;;;22.34;82.17
23427;BME280;41148;45.420;10.952;2022-07-30T06:12:03;100555.47;;;22.10;82.86
23427;BME280;41148;45.420;10.952;2022-07-30T06:14:31;100548.13;;;21.99;83.27
23427;BME280;41148;45.420;10.952;2022-07-30T06:16:58;100553.94;;;22.41;81.89
23427;BME280;41148;45.420;10.952;2022-07-30T06:19:34;100560.81;;;22.56;80.24
23427;BME280;41148;45.420;10.952;2022-07-30T06:22:02;100562.94;;;22.87;78.58
23427;BME280;41148;45.420;10.952;2022-07-30T06:24:36;100568.22;;;22.77;80.12
23427;BME280;41148;45.420;10.952;2022-07-30T06:27:09;100572.31;;;22.82;80.00
23427;BME280;41148;45.420;10.952;2022-07-30T06:29:38;100584.06;;;22.94;77.88
23427;BME280;41148;45.420;10.952;2022-07-30T06:32:05;100578.00;;;23.02;76.56
23427;BME280;41148;45.420;10.952;2022-07-30T06:34:32;100590.03;;;22.88;76.80
23427;BME280;41148;45.420;10.952;2022-07-30T06:37:00;100582.31;;;22.71;78.48
23427;BME280;41148;45.420;10.952;2022-07-30T06:39:28;100587.25;;;22.66;78.19
23427;BME280;41148;45.420;10.952;2022-07-30T06:42:35;100583.44;;;22.79;78.54
23427;BME280;41148;45.420;10.952;2022-07-30T06:45:32;100572.97;;;22.97;79.05
23427;BME280;41148;45.420;10.952;2022-07-30T06:48:16;100585.41;;;23.11;76.14
23427;BME280;41148;45.420;10.952;2022-07-30T06:50:44;100585.38;;;23.22;74.61
23427;BME280;41148;45.420;10.952;2022-07-30T06:53:11;100585.59;;;23.41;73.88
23427;BME280;41148;45.420;10.952;2022-07-30T06:55:57;100580.38;;;23.61;73.21
23427;BME280;41148;45.420;10.952;2022-07-30T06:58:34;100590.13;;;23.52;75.07
23427;BME280;41148;45.420;10.952;2022-07-30T07:01:20;100585.25;;;23.24;74.41
23427;BME280;41148;45.420;10.952;2022-07-30T07:03:50;100586.59;;;23.40;74.26
23427;BME280;41148;45.420;10.952;2022-07-30T07:06:17;100586.19;;;23.67;73.56
23427;BME280;41148;45.420;10.952;2022-07-30T07:08:45;100585.47;;;23.86;71.49
23427;BME280;41148;45.420;10.952;2022-07-30T07:11:17;100587.94;;;23.89;71.03
23427;BME280;41148;45.420;10.952;2022-07-30T07:13:48;100585.28;;;23.99;70.81
23427;BME280;41148;45.420;10.952;2022-07-30T07:16:23;100593.84;;;23.94;68.86
23427;BME280;41148;45.420;10.952;2022-07-30T07:18:55;100582.34;;;23.91;69.44
23427;BME280;41148;45.420;10.952;2022-07-30T07:21:22;100583.16;;;24.03;69.52
23427;BME280;41148;45.420;10.952;2022-07-30T07:23:52;100590.88;;;24.18;69.45
23427;BME280;41148;45.420;10.952;2022-07-30T07:26:46;100586.78;;;24.24;67.51
23427;BME280;41148;45.420;10.952;2022-07-30T07:29:13;100583.50;;;24.30;67.60
23427;BME280;41148;45.420;10.952;2022-07-30T07:31:42;100579.06;;;24.50;67.25
23427;BME280;41148;45.420;10.952;2022-07-30T07:34:29;100583.59;;;24.40;68.08
23427;BME280;41148;45.420;10.952;2022-07-30T07:36:57;100585.38;;;24.50;67.15
23427;BME280;41148;45.420;10.952;2022-07-30T07:39:25;100590.22;;;24.26;67.30
23427;BME280;41148;45.420;10.952;2022-07-30T07:41:52;100587.06;;;24.31;68.18
23427;BME280;41148;45.420;10.952;2022-07-30T07:44:22;100593.66;;;24.49;67.19
23427;BME280;41148;45.420;10.952;2022-07-30T07:46:49;100590.69;;;24.31;67.52
23427;BME280;41148;45.420;10.952;2022-07-30T07:49:17;100582.69;;;24.60;67.19
23427;BME280;41148;45.420;10.952;2022-07-30T07:51:48;100588.94;;;24.72;66.46
23427;BME280;41148;45.420;10.952;2022-07-30T07:54:19;100579.84;;;24.62;65.92
23427;BME280;41148;45.420;10.952;2022-07-30T07:56:50;100588.22;;;24.79;64.63
23427;BME280;41148;45.420;10.952;2022-07-30T07:59:23;100585.78;;;25.07;64.14
23427;BME280;41148;45.420;10.952;2022-07-30T08:02:03;100585.00;;;25.26;63.73
23427;BME280;41148;45.420;10.952;2022-07-30T08:04:52;100593.63;;;25.31;63.34
23427;BME280;41148;45.420;10.952;2022-07-30T08:07:19;100599.78;;;25.33;63.28
23427;BME280;41148;45.420;10.952;2022-07-30T08:10:05;100606.59;;;25.08;64.05
23427;BME280;41148;45.420;10.952;2022-07-30T08:12:55;100612.19;;;24.76;64.18
23427;BME280;41148;45.420;10.952;2022-07-30T08:15:41;100607.97;;;24.93;65.16
23427;BME280;41148;45.420;10.952;2022-07-30T08:18:18;100612.38;;;25.15;64.63
23427;BME280;41148;45.420;10.952;2022-07-30T08:20:58;100609.56;;;25.35;65.34
23427;BME280;41148;45.420;10.952;2022-07-30T08:23:30;100609.44;;;25.47;62.45
23427;BME280;41148;45.420;10.952;2022-07-30T08:25:57;100615.19;;;25.53;62.55
23427;BME280;41148;45.420;10.952;2022-07-30T08:28:25;100608.59;;;25.56;62.95
23427;BME280;41148;45.420;10.952;2022-07-30T08:31:03;100610.38;;;25.76;62.59
23427;BME280;41148;45.420;10.952;2022-07-30T08:33:30;100620.00;;;25.90;59.44
23427;BME280;41148;45.420;10.952;2022-07-30T08:35:58;100619.88;;;26.01;59.82
23427;BME280;41148;45.420;10.952;2022-07-30T08:38:35;100616.06;;;25.63;60.81
23427;BME280;41148;45.420;10.952;2022-07-30T08:41:02;100613.38;;;25.73;61.40
23427;BME280;41148;45.420;10.952;2022-07-30T08:43:29;100620.84;;;25.71;62.40
23427;BME280;41148;45.420;10.952;2022-07-30T08:45:57;100618.56;;;25.95;61.94
23427;BME280;41148;45.420;10.952;2022-07-30T08:48:42;100612.53;;;26.02;61.74
23427;BME280;41148;45.420;10.952;2022-07-30T08:51:12;100617.13;;;26.20;61.16
23427;BME280;41148;45.420;10.952;2022-07-30T08:54:13;100613.00;;;26.73;58.26
23427;BME280;41148;45.420;10.952;2022-07-30T08:56:41;100612.34;;;27.08;56.43
23427;BME280;41148;45.420;10.952;2022-07-30T08:59:08;100613.41;;;26.88;56.43
23427;BME280;41148;45.420;10.952;2022-07-30T09:01:37;100610.63;;;26.97;56.19
23427;BME280;41148;45.420;10.952;2022-07-30T09:04:05;100608.97;;;27.24;55.73
23427;BME280;41148;45.420;10.952;2022-07-30T09:06:37;100606.66;;;27.19;56.17
23427;BME280;41148;45.420;10.952;2022-07-30T09:09:09;100612.19;;;27.37;55.11
23427;BME280;41148;45.420;10.952;2022-07-30T09:11:36;100611.97;;;27.76;53.83
23427;BME280;41148;45.420;10.952;2022-07-30T09:14:11;100607.66;;;27.91;51.98
23427;BME280;41148;45.420;10.952;2022-07-30T09:16:39;100609.47;;;27.82;53.68
23427;BME280;41148;45.420;10.952;2022-07-30T09:19:10;100607.25;;;28.04;52.56
23427;BME280;41148;45.420;10.952;2022-07-30T09:21:38;100612.91;;;28.20;52.29
23427;BME280;41148;45.420;10.952;2022-07-30T09:24:23;100616.44;;;28.56;50.46
23427;BME280;41148;45.420;10.952;2022-07-30T09:27:25;100609.13;;;28.21;50.38
23427;BME280;41148;45.420;10.952;2022-07-30T09:33:37;100611.63;;;28.76;47.89
23427;BME280;41148;45.420;10.952;2022-07-30T09:36:35;100607.69;;;29.13;46.77
23427;BME280;41148;45.420;10.952;2022-07-30T09:39:37;100609.34;;;29.40;44.98
23427;BME280;41148;45.420;10.952;2022-07-30T09:42:27;100612.03;;;29.66;42.61
23427;BME280;41148;45.420;10.952;2022-07-30T09:45:07;100609.16;;;29.33;40.98
23427;BME280;41148;45.420;10.952;2022-07-30T09:47:44;100617.09;;;28.50;42.83
23427;BME280;41148;45.420;10.952;2022-07-30T09:50:19;100606.47;;;27.76;47.32
23427;BME280;41148;45.420;10.952;2022-07-30T09:53:07;100606.72;;;27.37;48.80
23427;BME280;41148;45.420;10.952;2022-07-30T09:55:39;100603.34;;;27.88;48.96
23427;BME280;41148;45.420;10.952;2022-07-30T09:58:09;100595.97;;;28.24;49.05
23427;BME280;41148;45.420;10.952;2022-07-30T10:00:45;100595.34;;;28.48;49.62
23427;BME280;41148;45.420;10.952;2022-07-30T10:03:48;100590.59;;;28.59;47.18
23427;BME280;41148;45.420;10.952;2022-07-30T10:06:35;100597.53;;;28.71;47.49
23427;BME280;41148;45.420;10.952;2022-07-30T10:09:34;100592.78;;;28.81;46.98
23427;BME280;41148;45.420;10.952;2022-07-30T10:12:04;100595.81;;;28.70;48.50
23427;BME280;41148;45.420;10.952;2022-07-30T10:14:37;100590.13;;;28.02;48.06
23427;BME280;41148;45.420;10.952;2022-07-30T10:17:09;100586.19;;;28.40;47.46
23427;BME280;41148;45.420;10.952;2022-07-30T10:19:39;100583.97;;;28.69;46.91
23427;BME280;41148;45.420;10.952;2022-07-30T10:22:13;100587.47;;;28.79;46.64
23427;BME280;41148;45.420;10.952;2022-07-30T10:25:09;100581.88;;;28.63;46.16
23427;BME280;41148;45.420;10.952;2022-07-30T10:28:11;100584.16;;;28.06;46.87
23427;BME280;41148;45.420;10.952;2022-07-30T10:30:39;100582.91;;;28.36;47.32
23427;BME280;41148;45.420;10.952;2022-07-30T10:33:06;100582.59;;;28.39;47.20
23427;BME280;41148;45.420;10.952;2022-07-30T10:35:54;100576.91;;;28.59;47.83
23427;BME280;41148;45.420;10.952;2022-07-30T10:38:23;100577.66;;;28.69;47.31
23427;BME280;41148;45.420;10.952;2022-07-30T10:40:56;100584.31;;;28.66;48.02
23427;BME280;41148;45.420;10.952;2022-07-30T10:48:34;100584.56;;;28.81;46.85
23427;BME280;41148;45.420;10.952;2022-07-30T10:51:02;100585.59;;;28.80;47.08
23427;BME280;41148;45.420;10.952;2022-07-30T10:53:31;100570.50;;;28.76;46.71
23427;BME280;41148;45.420;10.952;2022-07-30T10:56:11;100571.59;;;28.57;45.59
23427;BME280;41148;45.420;10.952;2022-07-30T11:04:28;100571.50;;;28.75;46.48
23427;BME280;41148;45.420;10.952;2022-07-30T11:09:43;100580.28;;;28.78;45.68
23427;BME280;41148;45.420;10.952;2022-07-30T11:15:12;100569.81;;;28.82;45.08
23427;BME280;41148;45.420;10.952;2022-07-30T11:18:04;100574.78;;;28.78;45.73
23427;BME280;41148;45.420;10.952;2022-07-30T11:20:39;100573.31;;;28.92;45.69
23427;BME280;41148;45.420;10.952;2022-07-30T11:23:07;100571.50;;;29.01;46.18
23427;BME280;41148;45.420;10.952;2022-07-30T11:31:01;100562.78;;;29.05;45.76
23427;BME280;41148;45.420;10.952;2022-07-30T11:33:36;100564.00;;;29.19;46.66
23427;BME280;41148;45.420;10.952;2022-07-30T11:36:09;100572.91;;;29.05;44.94
23427;BME280;41148;45.420;10.952;2022-07-30T11:41:17;100551.28;;;29.10;45.79
23427;BME280;41148;45.420;10.952;2022-07-30T11:43:44;100548.06;;;29.23;45.72
23427;BME280;41148;45.420;10.952;2022-07-30T11:46:18;100551.84;;;29.22;45.27
23427;BME280;41148;45.420;10.952;2022-07-30T11:51:24;100542.75;;;29.21;45.02
23427;BME280;41148;45.420;10.952;2022-07-30T11:54:01;100541.06;;;29.28;44.80
23427;BME280;41148;45.420;10.952;2022-07-30T11:56:29;100541.94;;;29.37;44.03
23427;BME280;41148;45.420;10.952;2022-07-30T11:59:01;100540.41;;;29.43;42.40
23427;BME280;41148;45.420;10.952;2022-07-30T12:01:29;100537.34;;;29.46;41.20
23427;BME280;41148;45.420;10.952;2022-07-30T12:03:57;100536.16;;;29.48;40.21
23427;BME280;41148;45.420;10.952;2022-07-30T12:06:27;100542.03;;;29.53;39.80
23427;BME280;41148;45.420;10.952;2022-07-30T12:08:57;100542.88;;;29.54;37.93
23427;BME280;41148;45.420;10.952;2022-07-30T12:11:31;100537.41;;;29.54;37.29
23427;BME280;41148;45.420;10.952;2022-07-30T12:14:00;100539.44;;;29.60;37.48
23427;BME280;41148;45.420;10.952;2022-07-30T12:16:29;100537.53;;;29.52;36.47
23427;BME280;41148;45.420;10.952;2022-07-30T12:19:00;100529.78;;;29.40;37.31
23427;BME280;41148;45.420;10.952;2022-07-30T12:21:28;100538.69;;;29.42;37.89
23427;BME280;41148;45.420;10.952;2022-07-30T12:23:57;100533.56;;;29.47;37.63
23427;BME280;41148;45.420;10.952;2022-07-30T12:26:25;100533.94;;;29.52;36.89
23427;BME280;41148;45.420;10.952;2022-07-30T12:28:53;100530.03;;;29.54;34.65
23427;BME280;41148;45.420;10.952;2022-07-30T12:31:21;100533.44;;;29.56;34.24
23427;BME280;41148;45.420;10.952;2022-07-30T12:33:48;100536.69;;;29.60;35.16
23427;BME280;41148;45.420;10.952;2022-07-30T12:36:23;100533.09;;;29.59;34.79
23427;BME280;41148;45.420;10.952;2022-07-30T12:38:51;100526.75;;;29.59;34.93
23427;BME280;41148;45.420;10.952;2022-07-30T12:41:20;100533.47;;;29.64;35.17
23427;BME280;41148;45.420;10.952;2022-07-30T12:43:49;100531.03;;;29.61;34.84
23427;BME280;41148;45.420;10.952;2022-07-30T12:46:18;100524.03;;;29.75;33.85
23427;BME280;41148;45.420;10.952;2022-07-30T12:51:16;100514.75;;;29.76;35.59
23427;BME280;41148;45.420;10.952;2022-07-30T12:53:43;100521.97;;;29.77;36.08
23427;BME280;41148;45.420;10.952;2022-07-30T12:56:11;100512.03;;;29.84;36.25
23427;BME280;41148;45.420;10.952;2022-07-30T12:58:39;100514.75;;;29.92;36.79
23427;BME280;41148;45.420;10.952;2022-07-30T13:01:07;100510.63;;;29.97;35.38
23427;BME280;41148;45.420;10.952;2022-07-30T13:03:35;100510.81;;;30.03;35.69
23427;BME280;41148;45.420;10.952;2022-07-30T13:06:12;100508.59;;;30.07;35.98
23427;BME280;41148;45.420;10.952;2022-07-30T13:11:18;100488.69;;;30.13;35.70
23427;BME280;41148;45.420;10.952;2022-07-30T13:13:46;100479.88;;;30.01;36.11
23427;BME280;41148;45.420;10.952;2022-07-30T13:16:13;100488.47;;;30.06;37.20
23427;BME280;41148;45.420;10.952;2022-07-30T13:18:40;100489.72;;;30.12;37.17
23427;BME280;41148;45.420;10.952;2022-07-30T13:21:08;100482.66;;;30.17;37.13
23427;BME280;41148;45.420;10.952;2022-07-30T13:23:36;100485.75;;;30.14;36.90
23427;BME280;41148;45.420;10.952;2022-07-30T13:26:04;100492.44;;;30.04;36.78
23427;BME280;41148;45.420;10.952;2022-07-30T13:28:32;100487.47;;;30.07;36.63
23427;BME280;41148;45.420;10.952;2022-07-30T13:31:00;100481.47;;;30.12;36.23
23427;BME280;41148;45.420;10.952;2022-07-30T13:33:28;100482.47;;;30.19;36.99
23427;BME280;41148;45.420;10.952;2022-07-30T13:35:55;100483.50;;;30.18;37.49
23427;BME280;41148;45.420;10.952;2022-07-30T13:38:23;100486.59;;;30.23;37.27
23427;BME280;41148;45.420;10.952;2022-07-30T13:40:50;100486.22;;;30.26;36.32
23427;BME280;41148;45.420;10.952;2022-07-30T13:43:18;100483.47;;;30.34;36.51
23427;BME280;41148;45.420;10.952;2022-07-30T13:45:45;100480.19;;;30.39;36.12